Time;durP1;ratioP1;P1;durP2;ratioP2;P2;SDS_P1;SDS_P2;PMS_P1;PMS_P2;Temp;Humidity;BMP_temperature;BMP_pressure;BME280_temperature;BME280_humidity;BME280_pressure;Samples;Min_cycle;Max_cycle;Signal;HPM_P1;HPM_P2
2024/03/05 00:02:08;;;;;;;90.32;27.30;;;6.00;99.90;;;;;;5046822;28;20064;-65
2024/03/05 00:04:33;;;;;;;90.78;27.40;;;6.00;99.90;;;;;;5051347;28;20036;-65
2024/03/05 00:06:59;;;;;;;88.30;27.90;;;5.90;99.90;;;;;;5042976;28;20026;-66
2024/03/05 00:09:25;;;;;;;88.65;27.85;;;5.90;99.90;;;;;;5052867;28;20056;-66
2024/03/05 00:11:51;;;;;;;90.13;27.25;;;5.80;99.90;;;;;;5042358;28;20032;-65
2024/03/05 00:14:18;;;;;;;119.00;32.58;;;5.80;99.90;;;;;;5051163;28;20068;-65
2024/03/05 00:16:44;;;;;;;120.25;32.75;;;5.70;99.90;;;;;;5049060;28;20345;-65
2024/03/05 00:19:11;;;;;;;116.07;31.52;;;5.70;99.90;;;;;;5048827;28;20034;-65
2024/03/05 00:21:37;;;;;;;113.35;30.95;;;5.70;99.90;;;;;;5041690;28;20041;-65
2024/03/05 00:24:03;;;;;;;116.78;32.95;;;5.70;99.90;;;;;;5048374;28;20072;-65
2024/03/05 00:26:28;;;;;;;124.97;33.92;;;5.70;99.90;;;;;;5042026;28;20488;-66
2024/03/05 00:28:56;;;;;;;148.13;38.42;;;5.70;99.90;;;;;;5054661;28;20043;-66
2024/03/05 00:31:22;;;;;;;142.10;34.28;;;5.60;99.90;;;;;;5041667;28;20025;-64
2024/03/05 00:33:48;;;;;;;139.45;35.28;;;5.70;99.90;;;;;;5046097;28;20029;-64
2024/03/05 00:36:14;;;;;;;152.20;35.53;;;5.70;99.90;;;;;;5050946;28;20055;-65
2024/03/05 00:38:40;;;;;;;146.77;35.78;;;5.60;99.90;;;;;;5056966;28;20067;-65
2024/03/05 00:41:06;;;;;;;153.27;35.83;;;5.60;99.90;;;;;;5051734;28;20383;-64
2024/03/05 00:43:32;;;;;;;144.77;34.90;;;5.60;99.90;;;;;;5047668;28;20043;-64
2024/03/05 00:45:58;;;;;;;138.02;35.15;;;5.50;99.90;;;;;;5042088;28;20040;-65
2024/03/05 00:48:24;;;;;;;149.35;36.28;;;5.40;99.90;;;;;;5038877;28;20029;-64
2024/03/05 00:50:50;;;;;;;160.55;37.83;;;5.40;99.90;;;;;;5041127;28;20524;-65
2024/03/05 00:53:20;;;;;;;177.00;40.88;;;5.30;99.90;;;;;;5039934;28;20110;-66
2024/03/05 00:55:46;;;;;;;166.45;40.53;;;5.20;99.90;;;;;;5041655;28;20025;-65
2024/03/05 00:58:12;;;;;;;172.65;39.10;;;5.10;99.90;;;;;;5043878;28;20788;-65
2024/03/05 01:00:38;;;;;;;164.88;38.22;;;5.00;99.90;;;;;;5036213;28;20083;-64
2024/03/05 01:03:04;;;;;;;163.68;38.28;;;4.80;99.90;;;;;;5040348;28;20136;-65
2024/03/05 01:05:30;;;;;;;148.50;36.80;;;4.70;99.90;;;;;;5036951;28;20025;-64
2024/03/05 01:07:55;;;;;;;144.43;35.50;;;4.60;99.90;;;;;;5040979;28;20025;-64
2024/03/05 01:10:21;;;;;;;147.13;37.45;;;4.50;99.90;;;;;;5037632;28;20022;-64
2024/03/05 01:12:47;;;;;;;138.07;36.22;;;4.40;99.90;;;;;;5040470;28;20111;-64
2024/03/05 01:15:12;;;;;;;153.70;36.50;;;4.40;99.90;;;;;;5041842;28;20041;-64
2024/03/05 01:17:39;;;;;;;154.57;37.65;;;4.30;99.90;;;;;;5040108;28;20067;-65
2024/03/05 01:20:10;;;;;;;175.88;40.22;;;4.30;99.90;;;;;;5039440;28;20409;-65
2024/03/05 01:22:36;;;;;;;143.23;35.67;;;4.30;99.90;;;;;;5038709;28;20040;-65
2024/03/05 01:25:02;;;;;;;148.63;34.80;;;4.50;99.90;;;;;;5036186;28;20392;-65
2024/03/05 01:27:27;;;;;;;139.55;33.85;;;4.50;99.90;;;;;;5041366;28;20057;-64
2024/03/05 01:29:53;;;;;;;149.40;35.08;;;4.60;99.90;;;;;;5041074;28;20022;-65
2024/03/05 01:32:19;;;;;;;156.90;37.33;;;4.70;99.90;;;;;;5041699;28;20036;-65
2024/03/05 01:34:47;;;;;;;148.45;35.80;;;4.80;99.90;;;;;;5038508;28;20020;-64
2024/03/05 01:37:13;;;;;;;138.95;34.90;;;4.90;99.90;;;;;;5042293;28;20024;-65
2024/03/05 01:39:38;;;;;;;160.30;35.50;;;5.00;99.90;;;;;;5042229;28;20035;-65
2024/03/05 01:42:07;;;;;;;149.50;36.47;;;5.10;99.90;;;;;;5039960;28;20063;-66
2024/03/05 01:44:33;;;;;;;138.07;34.63;;;5.10;99.90;;;;;;5040387;28;20021;-65
2024/03/05 01:46:59;;;;;;;141.88;35.88;;;5.20;99.90;;;;;;5038192;28;20091;-65
2024/03/05 01:49:26;;;;;;;133.02;34.30;;;5.30;99.90;;;;;;5036979;28;20021;-65
2024/03/05 01:51:54;;;;;;;135.70;36.55;;;5.30;99.90;;;;;;5039318;28;20087;-65
2024/03/05 01:54:21;;;;;;;149.57;37.80;;;5.50;99.90;;;;;;5031947;28;20033;-65
2024/03/05 01:56:52;;;;;;;137.20;36.72;;;5.60;99.90;;;;;;5047841;28;20029;-65
2024/03/05 01:59:18;;;;;;;136.20;36.63;;;5.70;99.90;;;;;;5036686;28;20066;-65
2024/03/05 02:01:45;;;;;;;130.93;35.53;;;5.80;99.90;;;;;;5038452;28;20492;-65
2024/03/05 02:04:11;;;;;;;131.02;36.70;;;5.90;99.90;;;;;;5040773;28;20369;-65
2024/03/05 02:06:41;;;;;;;128.95;33.13;;;5.90;99.90;;;;;;5041461;28;20033;-65
2024/03/05 02:09:11;;;;;;;134.73;32.97;;;6.00;99.90;;;;;;5040123;28;20028;-68
2024/03/05 02:11:44;;;;;;;132.60;35.37;;;5.90;99.90;;;;;;5038086;28;20078;-65
2024/03/05 02:14:10;;;;;;;151.13;35.72;;;5.80;99.90;;;;;;5037000;28;20463;-66
2024/03/05 02:16:36;;;;;;;141.65;36.28;;;6.00;99.90;;;;;;5038024;28;20037;-65
2024/03/05 02:19:05;;;;;;;131.40;36.42;;;6.00;99.90;;;;;;5037822;28;20069;-65
2024/03/05 02:21:31;;;;;;;121.40;32.67;;;6.00;99.90;;;;;;5040015;28;20025;-66
2024/03/05 02:23:57;;;;;;;130.02;34.45;;;6.00;99.90;;;;;;5040218;28;20042;-65
2024/03/05 02:26:25;;;;;;;119.68;32.83;;;6.00;99.90;;;;;;5041312;28;20108;-66
2024/03/05 02:28:53;;;;;;;132.07;34.08;;;5.90;99.90;;;;;;5036103;28;20021;-65
2024/03/05 02:31:19;;;;;;;126.22;34.90;;;5.90;99.90;;;;;;5041211;28;20166;-66
2024/03/05 02:33:47;;;;;;;137.95;37.17;;;5.90;99.90;;;;;;5032750;28;20033;-65
2024/03/05 02:36:12;;;;;;;139.07;34.55;;;5.80;99.90;;;;;;5039661;28;20025;-65
2024/03/05 02:38:38;;;;;;;125.65;32.22;;;5.80;99.90;;;;;;5037518;28;20427;-65
2024/03/05 02:41:04;;;;;;;110.78;31.15;;;5.80;99.90;;;;;;5039513;28;20025;-65
2024/03/05 02:43:30;;;;;;;124.55;33.78;;;5.90;99.90;;;;;;5035565;28;20466;-66
2024/03/05 02:45:56;;;;;;;119.85;32.47;;;5.90;99.90;;;;;;5034377;28;20049;-65
2024/03/05 02:48:22;;;;;;;125.93;33.22;;;5.90;99.90;;;;;;5037719;28;20382;-65
2024/03/05 02:50:48;;;;;;;120.45;33.72;;;5.80;99.90;;;;;;5039286;28;20171;-65
2024/03/05 02:53:14;;;;;;;124.03;31.83;;;5.80;99.90;;;;;;5036111;28;20025;-65
2024/03/05 02:55:41;;;;;;;124.85;32.30;;;5.80;99.90;;;;;;5039841;28;20061;-65
2024/03/05 02:58:07;;;;;;;114.95;32.88;;;5.80;99.90;;;;;;5040117;28;20705;-65
2024/03/05 03:00:33;;;;;;;118.90;32.17;;;5.80;99.90;;;;;;5038141;28;20096;-65
2024/03/05 03:02:59;;;;;;;119.85;32.53;;;5.80;99.90;;;;;;5038705;28;20113;-65
2024/03/05 03:05:25;;;;;;;105.07;30.27;;;5.90;99.90;;;;;;5042656;28;20388;-65
2024/03/05 03:07:51;;;;;;;108.88;32.10;;;5.90;99.90;;;;;;5043783;28;20116;-65
2024/03/05 03:10:17;;;;;;;109.68;32.30;;;5.90;99.90;;;;;;5041465;28;20036;-65
2024/03/05 03:12:49;;;;;;;119.82;32.20;;;5.90;99.90;;;;;;5040670;28;20029;-65
2024/03/05 03:15:20;;;;;;;118.50;32.55;;;5.90;99.90;;;;;;5041300;28;20065;-66
2024/03/05 03:17:46;;;;;;;117.85;33.47;;;5.90;99.90;;;;;;5040924;28;20025;-65
2024/03/05 03:20:15;;;;;;;105.97;31.10;;;5.90;99.90;;;;;;5044742;28;20112;-66
2024/03/05 03:22:43;;;;;;;118.53;31.10;;;5.90;99.90;;;;;;5040756;28;20032;-65
2024/03/05 03:25:09;;;;;;;98.95;29.77;;;5.90;99.90;;;;;;5042579;28;20033;-66
2024/03/05 03:27:35;;;;;;;106.85;30.02;;;5.90;99.90;;;;;;5040660;28;20290;-66
2024/03/05 03:30:02;;;;;;;100.80;29.45;;;5.90;99.90;;;;;;5050139;28;20025;-65
2024/03/05 03:32:29;;;;;;;97.68;29.98;;;5.90;99.90;;;;;;5042228;28;20036;-65
2024/03/05 03:34:54;;;;;;;96.15;29.40;;;5.90;99.90;;;;;;5041743;28;20018;-65
2024/03/05 03:37:20;;;;;;;109.47;31.38;;;5.80;99.90;;;;;;5044048;28;20036;-66
2024/03/05 03:39:49;;;;;;;108.07;29.63;;;5.80;99.90;;;;;;5043694;28;20028;-65
2024/03/05 03:42:16;;;;;;;96.40;29.48;;;5.80;99.90;;;;;;5044662;28;20030;-65
2024/03/05 03:44:41;;;;;;;102.28;30.73;;;5.80;99.90;;;;;;5044023;28;20496;-66
2024/03/05 03:47:07;;;;;;;104.78;30.42;;;5.70;99.90;;;;;;5040992;28;20021;-65
2024/03/05 03:49:33;;;;;;;102.35;29.02;;;5.60;99.90;;;;;;5041746;28;20420;-66
2024/03/05 03:51:59;;;;;;;112.78;31.05;;;5.70;99.90;;;;;;5042056;28;20048;-65
2024/03/05 03:54:25;;;;;;;105.95;30.15;;;5.70;99.90;;;;;;5040813;28;20461;-66
2024/03/05 03:56:51;;;;;;;108.28;28.92;;;5.50;99.90;;;;;;5045164;28;20033;-65
2024/03/05 03:59:18;;;;;;;88.60;27.65;;;5.40;99.90;;;;;;5043390;28;20055;-65
2024/03/05 04:01:48;;;;;;;103.45;27.58;;;5.30;99.90;;;;;;5039901;28;20033;-65
2024/03/05 04:04:14;;;;;;;112.05;31.25;;;5.20;99.90;;;;;;5043364;28;20025;-65
2024/03/05 04:06:39;;;;;;;111.88;31.13;;;5.20;99.90;;;;;;5039440;28;20420;-65
2024/03/05 04:09:08;;;;;;;103.10;27.63;;;5.10;99.90;;;;;;5042835;28;20021;-65
2024/03/05 04:11:36;;;;;;;109.25;30.60;;;5.10;99.90;;;;;;5040205;28;20024;-66
2024/03/05 04:14:01;;;;;;;126.88;32.03;;;5.10;99.90;;;;;;5041309;28;20037;-65
2024/03/05 04:16:28;;;;;;;115.10;31.70;;;5.10;99.90;;;;;;5041288;28;20440;-65
2024/03/05 04:18:54;;;;;;;122.35;31.60;;;5.20;99.90;;;;;;5040863;28;20147;-65
2024/03/05 04:21:20;;;;;;;119.07;32.05;;;5.20;99.90;;;;;;5041144;28;20515;-65
2024/03/05 04:23:46;;;;;;;107.40;29.27;;;5.20;99.90;;;;;;5041239;28;20483;-65
2024/03/05 04:26:22;;;;;;;107.03;30.42;;;5.20;99.90;;;;;;5046299;28;20063;-65
2024/03/05 04:28:48;;;;;;;114.43;29.25;;;5.20;99.90;;;;;;5037717;28;20104;-65
2024/03/05 04:31:16;;;;;;;116.15;30.27;;;5.20;99.90;;;;;;5038087;28;20075;-65
2024/03/05 04:33:43;;;;;;;113.65;29.88;;;5.20;99.90;;;;;;5036525;28;20025;-65
2024/03/05 04:36:09;;;;;;;108.05;29.73;;;5.20;99.90;;;;;;5046909;28;20487;-65
2024/03/05 04:38:40;;;;;;;105.55;29.27;;;5.20;99.90;;;;;;5038560;28;20033;-65
2024/03/05 04:41:07;;;;;;;105.90;28.70;;;5.20;99.90;;;;;;5038266;28;20258;-65
2024/03/05 04:43:32;;;;;;;103.32;28.23;;;5.30;99.90;;;;;;5040166;28;20446;-65
2024/03/05 04:45:59;;;;;;;104.65;27.38;;;5.30;99.90;;;;;;5041902;28;20024;-65
2024/03/05 04:48:25;;;;;;;110.00;29.58;;;5.30;99.90;;;;;;5040875;28;20025;-65
2024/03/05 04:50:52;;;;;;;100.82;28.40;;;5.30;99.90;;;;;;5040337;28;20505;-65
2024/03/05 04:53:18;;;;;;;104.28;27.85;;;5.30;99.90;;;;;;5041384;28;20021;-66
2024/03/05 04:55:43;;;;;;;120.82;28.95;;;5.30;99.90;;;;;;5040840;28;20058;-65
2024/03/05 04:58:09;;;;;;;115.47;28.98;;;5.40;99.90;;;;;;5040198;28;20029;-65
2024/03/05 05:00:35;;;;;;;114.10;28.63;;;5.40;99.90;;;;;;5034118;28;20029;-65
2024/03/05 05:03:00;;;;;;;107.25;29.88;;;5.50;99.90;;;;;;5038427;28;20030;-66
2024/03/05 05:05:26;;;;;;;113.70;29.02;;;5.50;99.90;;;;;;5041286;28;20076;-65
2024/03/05 05:07:54;;;;;;;106.47;28.25;;;5.50;99.90;;;;;;5040261;28;20425;-65
2024/03/05 05:10:20;;;;;;;103.45;27.33;;;5.60;99.90;;;;;;5041136;28;20089;-66
2024/03/05 05:12:46;;;;;;;106.75;29.67;;;5.70;99.90;;;;;;5037543;28;20584;-66
2024/03/05 05:15:12;;;;;;;99.88;28.38;;;5.70;99.90;;;;;;5036810;28;20057;-66
2024/03/05 05:17:38;;;;;;;115.80;29.20;;;5.80;99.90;;;;;;5040204;28;20030;-66
2024/03/05 05:20:08;;;;;;;100.10;28.23;;;5.80;99.90;;;;;;5039828;28;20471;-65
2024/03/05 05:22:41;;;;;;;105.60;27.75;;;5.80;99.90;;;;;;5036814;28;20052;-65
2024/03/05 05:25:08;;;;;;;96.72;27.17;;;5.80;99.90;;;;;;5037427;28;20052;-66
2024/03/05 05:27:35;;;;;;;98.95;27.85;;;5.80;99.90;;;;;;5040267;28;20044;-65
2024/03/05 05:30:01;;;;;;;111.22;29.20;;;5.90;99.90;;;;;;5044737;28;20024;-65
2024/03/05 05:32:28;;;;;;;100.55;28.40;;;5.80;99.90;;;;;;5044291;28;20411;-65
2024/03/05 05:34:54;;;;;;;98.13;26.38;;;5.80;99.90;;;;;;5043791;28;20078;-65
2024/03/05 05:37:19;;;;;;;103.47;29.13;;;5.80;99.90;;;;;;5043202;28;20037;-65
2024/03/05 05:39:45;;;;;;;98.30;27.08;;;5.80;99.90;;;;;;5037218;28;20033;-65
2024/03/05 05:42:13;;;;;;;97.80;27.98;;;5.80;99.90;;;;;;5029979;28;20200;-65
2024/03/05 05:44:40;;;;;;;101.57;26.80;;;5.90;99.90;;;;;;5035098;28;20109;-65
2024/03/05 05:47:10;;;;;;;92.88;27.13;;;5.90;99.90;;;;;;5037243;28;20029;-65
2024/03/05 05:49:36;;;;;;;91.72;25.95;;;5.90;99.90;;;;;;5042635;28;20017;-65
2024/03/05 05:52:02;;;;;;;86.10;26.05;;;5.90;99.90;;;;;;5035882;28;20179;-66
2024/03/05 05:54:29;;;;;;;97.65;26.27;;;6.00;99.90;;;;;;5041610;28;20033;-65
2024/03/05 05:56:55;;;;;;;88.55;26.33;;;6.00;99.90;;;;;;5039345;28;20365;-65
2024/03/05 05:59:21;;;;;;;92.72;24.58;;;6.00;99.90;;;;;;5041344;28;20643;-66
2024/03/05 06:01:46;;;;;;;89.07;25.75;;;6.00;99.90;;;;;;5038218;28;20040;-66
2024/03/05 06:04:15;;;;;;;78.40;24.95;;;6.10;99.90;;;;;;5037874;28;20051;-65
2024/03/05 06:06:40;;;;;;;84.82;25.05;;;6.20;99.90;;;;;;5037647;28;20017;-65
2024/03/05 06:09:09;;;;;;;85.38;24.88;;;6.20;99.90;;;;;;5041681;28;20040;-66
2024/03/05 06:11:38;;;;;;;86.57;27.00;;;6.20;99.90;;;;;;5037662;28;20025;-65
2024/03/05 06:14:04;;;;;;;79.82;25.25;;;6.20;99.90;;;;;;5039984;28;20037;-65
2024/03/05 06:16:31;;;;;;;87.13;24.17;;;6.20;99.90;;;;;;5039745;28;20022;-65
2024/03/05 06:18:56;;;;;;;91.65;24.83;;;6.10;99.90;;;;;;5040863;28;20041;-65
2024/03/05 06:21:22;;;;;;;81.80;24.65;;;6.50;99.90;;;;;;5035012;28;20039;-65
2024/03/05 06:23:50;;;;;;;87.85;24.65;;;6.20;99.90;;;;;;5034877;28;20045;-66
2024/03/05 06:26:16;;;;;;;82.38;23.70;;;6.20;99.90;;;;;;5041207;28;20025;-65
2024/03/05 06:28:42;;;;;;;83.90;24.58;;;6.20;99.90;;;;;;5035205;28;20029;-66
2024/03/05 06:31:10;;;;;;;85.82;24.63;;;6.20;99.90;;;;;;5035526;28;20032;-65
2024/03/05 06:33:36;;;;;;;83.68;24.65;;;6.20;99.90;;;;;;5037914;28;20025;-66
2024/03/05 06:36:06;;;;;;;82.35;25.80;;;6.10;99.90;;;;;;5036879;28;20021;-65
2024/03/05 06:38:35;;;;;;;74.30;24.02;;;6.10;99.90;;;;;;5039243;28;20842;-65
2024/03/05 06:41:02;;;;;;;95.20;26.27;;;6.10;99.90;;;;;;5044367;28;20033;-64
2024/03/05 06:43:36;;;;;;;86.45;25.00;;;6.20;99.90;;;;;;5047048;28;20073;-65
2024/03/05 06:46:03;;;;;;;85.85;24.75;;;6.10;99.90;;;;;;5044912;28;20032;-66
2024/03/05 06:48:30;;;;;;;82.63;23.98;;;6.10;99.90;;;;;;5062962;28;20025;-64
2024/03/05 06:51:01;;;;;;;83.90;24.85;;;6.10;99.90;;;;;;5045943;28;20318;-65
2024/03/05 06:58:57;;;;;;;81.68;23.02;;;6.20;99.90;;;;;;5036713;28;20112;-67
2024/03/05 07:01:26;;;;;;;76.38;23.00;;;6.20;99.90;;;;;;5036451;28;20114;-65
2024/03/05 07:03:52;;;;;;;76.95;22.42;;;6.30;99.90;;;;;;5033511;28;20029;-66
2024/03/05 07:06:18;;;;;;;74.07;22.73;;;6.30;99.90;;;;;;5036241;28;20067;-65
2024/03/05 07:08:47;;;;;;;74.85;22.65;;;6.40;99.90;;;;;;5036325;28;20459;-66
2024/03/05 07:11:15;;;;;;;74.95;22.92;;;6.50;99.90;;;;;;5037638;28;20163;-64
2024/03/05 07:13:43;;;;;;;73.03;22.42;;;6.60;99.90;;;;;;5032270;28;20046;-65
2024/03/05 07:16:13;;;;;;;72.68;21.98;;;6.60;99.90;;;;;;5038557;28;20691;-65
2024/03/05 07:18:39;;;;;;;68.15;20.48;;;6.70;99.90;;;;;;5038256;28;20111;-65
2024/03/05 07:21:07;;;;;;;63.70;20.15;;;6.80;99.90;;;;;;5035919;28;20060;-64
2024/03/05 07:23:33;;;;;;;62.58;20.45;;;6.90;99.90;;;;;;5037010;28;20025;-65
2024/03/05 07:25:59;;;;;;;59.60;20.25;;;7.00;99.90;;;;;;5032717;28;20025;-65
2024/03/05 07:28:26;;;;;;;65.38;20.75;;;7.20;99.90;;;;;;5038726;28;20029;-65
2024/03/05 07:30:54;;;;;;;68.13;21.08;;;7.30;99.90;;;;;;5034676;28;20579;-65
2024/03/05 07:33:20;;;;;;;64.82;22.20;;;7.20;99.90;;;;;;5038134;28;20021;-65
2024/03/05 07:35:46;;;;;;;62.08;19.88;;;7.20;99.90;;;;;;5039203;28;20020;-66
2024/03/05 07:38:14;;;;;;;72.63;22.45;;;7.20;99.90;;;;;;5037868;28;20021;-65
2024/03/05 07:40:40;;;;;;;74.07;21.20;;;7.20;99.90;;;;;;5037204;28;20025;-65
2024/03/05 07:43:08;;;;;;;62.17;20.08;;;7.30;99.90;;;;;;5037654;28;20044;-65
2024/03/05 07:45:34;;;;;;;68.88;21.67;;;7.20;99.90;;;;;;5038605;28;20503;-66
2024/03/05 07:48:00;;;;;;;58.83;19.73;;;7.40;99.90;;;;;;5037977;28;20025;-65
2024/03/05 07:50:28;;;;;;;62.88;21.27;;;7.40;99.90;;;;;;5046343;28;20037;-66
2024/03/05 07:52:54;;;;;;;60.67;20.20;;;7.50;99.90;;;;;;5043196;28;20023;-65
2024/03/05 07:55:23;;;;;;;53.47;18.48;;;7.60;99.90;;;;;;5040146;28;20026;-66
2024/03/05 07:57:49;;;;;;;58.33;19.23;;;7.80;99.90;;;;;;5050529;28;20040;-66
2024/03/05 08:00:17;;;;;;;63.88;19.15;;;7.90;99.90;;;;;;5042407;28;20025;-66
2024/03/05 08:02:47;;;;;;;59.47;18.42;;;8.00;99.90;;;;;;5043198;28;20029;-65
2024/03/05 08:05:17;;;;;;;50.45;17.40;;;8.10;99.90;;;;;;5044230;28;20117;-65
2024/03/05 08:07:44;;;;;;;54.15;17.88;;;8.20;99.90;;;;;;5039225;28;20041;-65
2024/03/05 08:10:10;;;;;;;50.05;17.52;;;8.30;99.90;;;;;;5041263;28;20029;-65
2024/03/05 08:12:37;;;;;;;46.95;15.73;;;8.40;99.90;;;;;;5042887;28;20037;-66
2024/03/05 08:15:04;;;;;;;51.42;17.33;;;8.50;99.90;;;;;;5037937;28;20100;-66
2024/03/05 08:17:36;;;;;;;50.28;17.48;;;8.60;99.90;;;;;;5042409;28;20128;-66
2024/03/05 08:20:07;;;;;;;48.55;17.15;;;8.70;99.90;;;;;;5036520;28;20044;-66
2024/03/05 08:22:34;;;;;;;49.90;17.80;;;8.70;99.90;;;;;;5038708;28;20583;-65
2024/03/05 08:25:09;;;;;;;49.85;16.88;;;8.80;99.90;;;;;;5043613;28;20037;-65
2024/03/05 08:27:38;;;;;;;54.83;16.83;;;8.90;99.90;;;;;;5042545;28;20056;-65
2024/03/05 08:30:09;;;;;;;48.92;16.88;;;8.90;99.90;;;;;;5041191;28;20044;-65
2024/03/05 08:32:36;;;;;;;45.90;16.90;;;9.00;99.90;;;;;;5047278;28;20124;-65
2024/03/05 08:35:03;;;;;;;49.38;16.95;;;9.00;99.90;;;;;;5043219;28;20021;-65
2024/03/05 08:37:28;;;;;;;47.88;17.60;;;9.00;99.90;;;;;;5048825;28;20444;-65
2024/03/05 08:39:54;;;;;;;53.40;17.52;;;9.10;99.90;;;;;;5037042;28;20025;-65
2024/03/05 08:42:20;;;;;;;52.03;17.70;;;9.20;99.90;;;;;;5044773;28;20060;-66
2024/03/05 08:44:46;;;;;;;50.70;17.95;;;9.30;99.90;;;;;;5043060;28;20070;-65
2024/03/05 08:47:13;;;;;;;50.15;18.70;;;9.40;99.90;;;;;;5037265;28;20451;-65
2024/03/05 08:49:38;;;;;;;53.92;18.05;;;9.50;99.90;;;;;;5038349;28;20075;-65
2024/03/05 08:52:04;;;;;;;45.45;17.63;;;9.60;99.90;;;;;;5040796;28;20053;-65
2024/03/05 08:54:31;;;;;;;53.20;17.45;;;9.80;99.90;;;;;;5043873;28;20052;-65
2024/03/05 08:56:59;;;;;;;50.30;19.23;;;10.10;99.90;;;;;;5046594;28;20025;-65
2024/03/05 08:59:25;;;;;;;49.45;17.40;;;10.30;99.90;;;;;;5041175;28;20082;-65
2024/03/05 09:01:53;;;;;;;47.78;17.23;;;10.60;99.90;;;;;;5040896;28;20498;-65
2024/03/05 09:04:23;;;;;;;49.30;18.55;;;10.90;99.90;;;;;;5040434;28;20051;-65
2024/03/05 09:06:49;;;;;;;;;;;11.20;99.90;;;;;;5042294;28;20078;-65
2024/03/05 09:09:16;;;;;;;46.05;17.38;;;11.10;99.90;;;;;;5037797;28;20004;-65
2024/03/05 09:11:42;;;;;;;47.70;16.95;;;11.00;99.90;;;;;;5044156;28;20566;-65
2024/03/05 09:14:08;;;;;;;45.00;17.10;;;11.20;99.90;;;;;;5036500;28;20094;-65
2024/03/05 09:16:34;;;;;;;44.85;17.67;;;11.10;99.90;;;;;;5044480;28;20706;-65
2024/03/05 09:19:00;;;;;;;45.58;16.75;;;11.10;99.90;;;;;;5041189;28;20112;-65
2024/03/05 09:21:26;;;;;;;46.80;17.52;;;11.00;99.90;;;;;;5040111;28;20079;-65
2024/03/05 09:23:51;;;;;;;50.00;17.25;;;11.00;99.90;;;;;;5038406;28;20102;-65
2024/03/05 09:26:17;;;;;;;46.85;17.48;;;10.80;99.90;;;;;;5044387;28;20582;-65
2024/03/05 09:28:42;;;;;;;44.38;17.08;;;10.90;99.90;;;;;;5038422;28;20439;-66
2024/03/05 09:31:08;;;;;;;46.25;17.38;;;10.90;99.90;;;;;;5038958;28;20033;-66
2024/03/05 09:33:34;;;;;;;43.50;16.80;;;11.10;99.90;;;;;;5038983;28;20025;-66
2024/03/05 09:36:04;;;;;;;48.38;18.50;;;11.30;99.90;;;;;;5044490;28;20071;-65
2024/03/05 09:38:31;;;;;;;48.15;16.98;;;11.50;99.90;;;;;;5041723;28;20087;-66
2024/03/05 09:40:57;;;;;;;42.88;16.42;;;11.60;99.90;;;;;;5043635;28;20106;-66
2024/03/05 09:43:25;;;;;;;44.30;17.50;;;11.80;99.90;;;;;;5036869;28;20026;-65
2024/03/05 09:45:51;;;;;;;47.83;17.25;;;12.10;99.90;;;;;;5040201;28;20029;-65
2024/03/05 09:48:19;;;;;;;44.17;17.92;;;12.30;99.90;;;;;;5038387;28;20033;-65
2024/03/05 09:50:48;;;;;;;41.35;16.83;;;12.50;99.90;;;;;;5037523;28;20029;-65
2024/03/05 09:53:15;;;;;;;41.55;17.85;;;12.50;99.90;;;;;;5039173;28;20087;-65
2024/03/05 09:55:41;;;;;;;47.63;18.20;;;12.50;99.90;;;;;;5044685;28;20032;-66
2024/03/05 09:58:11;;;;;;;40.67;17.02;;;12.50;99.90;;;;;;5040764;28;20122;-66
2024/03/05 10:00:40;;;;;;;41.70;17.33;;;12.70;99.90;;;;;;5044636;28;20033;-65
2024/03/05 10:03:08;;;;;;;41.92;16.63;;;12.70;99.90;;;;;;5044390;28;20091;-65
2024/03/05 10:05:36;;;;;;;41.17;16.35;;;12.70;99.90;;;;;;5044953;28;20029;-66
2024/03/05 10:08:02;;;;;;;40.25;16.67;;;12.60;99.90;;;;;;5041644;28;20630;-65
2024/03/05 10:10:33;;;;;;;39.08;16.27;;;12.40;99.90;;;;;;5047158;28;20021;-65
2024/03/05 10:13:01;;;;;;;42.47;15.95;;;12.30;99.90;;;;;;5041656;28;20511;-64
2024/03/05 10:15:27;;;;;;;39.00;14.50;;;11.90;99.90;;;;;;5041123;28;20044;-65
2024/03/05 10:17:54;;;;;;;37.25;15.68;;;11.70;99.90;;;;;;5039643;28;20021;-65
2024/03/05 10:20:32;;;;;;;39.00;15.80;;;11.50;99.90;;;;;;5037711;28;20029;-65
2024/03/05 10:23:02;;;;;;;39.08;15.63;;;11.30;99.90;;;;;;5046561;28;20470;-65
2024/03/05 10:25:29;;;;;;;41.08;16.00;;;11.30;99.90;;;;;;5039359;28;20088;-65
2024/03/05 10:27:55;;;;;;;45.33;16.47;;;11.30;99.90;;;;;;5033461;28;20033;-65
2024/03/05 10:30:25;;;;;;;41.78;16.65;;;11.20;99.90;;;;;;5037757;28;20419;-65
2024/03/05 10:32:59;;;;;;;34.03;13.15;;;11.10;99.90;;;;;;5039616;28;20028;-65
2024/03/05 10:35:25;;;;;;;42.05;16.05;;;11.10;99.90;;;;;;5041365;28;20476;-65
2024/03/05 10:38:09;;;;;;;37.13;14.15;;;11.10;99.90;;;;;;5038702;28;20024;-65
2024/03/05 10:40:35;;;;;;;45.25;16.38;;;11.10;99.90;;;;;;5044474;28;20032;-65
2024/03/05 10:43:04;;;;;;;42.15;15.85;;;11.00;99.90;;;;;;5038551;28;20435;-66
2024/03/05 10:45:32;;;;;;;44.03;14.95;;;11.00;99.90;;;;;;5044088;28;20890;-66
2024/03/05 10:48:00;;;;;;;43.35;16.63;;;11.00;99.90;;;;;;5041753;28;20094;-65
2024/03/05 10:50:27;;;;;;;40.90;13.75;;;11.00;99.90;;;;;;5045446;28;20585;-64
2024/03/05 10:52:55;;;;;;;42.13;16.70;;;11.00;99.90;;;;;;5040217;28;20025;-64
2024/03/05 10:55:22;;;;;;;46.70;17.17;;;10.80;99.90;;;;;;5044742;28;20036;-64
2024/03/05 11:00:40;;;;;;;38.10;13.57;;;10.60;99.90;;;;;;5037117;28;20040;-64
2024/03/05 11:03:10;;;;;;;43.50;17.13;;;10.60;99.90;;;;;;5040942;28;20052;-63
2024/03/05 11:05:49;;;;;;;39.47;15.07;;;10.60;99.90;;;;;;5033509;28;20034;-64
2024/03/05 11:08:18;;;;;;;45.60;17.95;;;10.60;99.90;;;;;;5045229;28;20056;-64
2024/03/05 11:11:05;;;;;;;47.83;17.55;;;10.50;99.90;;;;;;5041068;28;20029;-63
2024/03/05 11:13:33;;;;;;;45.45;16.75;;;10.60;99.90;;;;;;5037273;28;20017;-65
2024/03/05 11:16:00;;;;;;;44.28;16.88;;;10.50;99.90;;;;;;5043760;28;20565;-64
2024/03/05 11:18:33;;;;;;;42.50;16.13;;;10.50;99.90;;;;;;5044921;28;20033;-63
2024/03/05 11:21:18;;;;;;;41.72;16.77;;;10.40;99.90;;;;;;5049740;28;20021;-64
2024/03/05 11:23:52;;;;;;;43.88;16.77;;;10.40;99.90;;;;;;5046809;28;20028;-65
2024/03/05 11:26:28;;;;;;;41.42;16.15;;;10.40;99.90;;;;;;5045833;28;20025;-65
2024/03/05 11:29:06;;;;;;;41.78;16.60;;;10.40;99.90;;;;;;5040506;28;20309;-66
2024/03/05 11:31:32;;;;;;;48.92;17.40;;;10.30;99.90;;;;;;5031370;28;20021;-65
2024/03/05 11:34:18;;;;;;;42.55;16.45;;;10.20;99.90;;;;;;5045432;28;20029;-65
2024/03/05 11:36:47;;;;;;;42.67;16.80;;;10.20;99.90;;;;;;5043340;28;20432;-65
2024/03/05 11:39:19;;;;;;;40.50;15.50;;;10.20;99.90;;;;;;5041886;28;20079;-65
2024/03/05 11:41:46;;;;;;;44.47;16.77;;;10.20;99.90;;;;;;5042941;28;20051;-64
2024/03/05 11:44:13;;;;;;;45.25;16.90;;;10.10;99.90;;;;;;5041546;28;20332;-64
2024/03/05 11:46:39;;;;;;;36.47;14.07;;;10.10;99.90;;;;;;5047203;28;20388;-63
2024/03/05 11:49:06;;;;;;;50.72;19.40;;;10.00;99.90;;;;;;5042860;28;20029;-63
2024/03/05 11:51:32;;;;;;;41.88;15.25;;;9.80;99.90;;;;;;5043508;28;20480;-63
2024/03/05 11:53:58;;;;;;;53.20;18.80;;;9.70;99.90;;;;;;5045654;28;20384;-63
2024/03/05 11:56:23;;;;;;;55.20;19.40;;;9.60;99.90;;;;;;5043605;28;20032;-64
2024/03/05 11:58:54;;;;;;;45.30;17.02;;;9.50;99.90;;;;;;5042665;28;20036;-63
2024/03/05 12:01:23;;;;;;;40.90;15.52;;;9.50;99.90;;;;;;5042713;28;20021;-63
2024/03/05 12:03:59;;;;;;;46.55;16.08;;;9.40;99.90;;;;;;5040518;28;20107;-64
2024/03/05 12:06:25;;;;;;;60.35;19.77;;;9.30;99.90;;;;;;5037423;28;20029;-64
2024/03/05 12:08:53;;;;;;;41.55;15.98;;;9.10;99.90;;;;;;5045424;28;20083;-62
2024/03/05 12:11:19;;;;;;;50.45;19.38;;;9.00;99.90;;;;;;5044994;28;20021;-63
2024/03/05 12:13:47;;;;;;;54.67;19.65;;;9.00;99.90;;;;;;5044185;28;20091;-64
2024/03/05 12:16:16;;;;;;;48.28;17.23;;;9.00;99.90;;;;;;5042204;28;20087;-64
2024/03/05 12:18:42;;;;;;;56.63;20.80;;;8.90;99.90;;;;;;5041733;28;20398;-64
2024/03/05 12:21:08;;;;;;;58.05;19.52;;;9.00;99.90;;;;;;5042908;28;20060;-65
2024/03/05 12:23:35;;;;;;;57.42;21.05;;;9.00;99.90;;;;;;5044515;28;20473;-64
2024/03/05 12:26:00;;;;;;;39.03;17.40;;;8.90;99.90;;;;;;5045613;28;20016;-64
2024/03/05 12:28:26;;;;;;;47.83;18.02;;;8.90;99.90;;;;;;5040909;28;20033;-64
2024/03/05 12:30:53;;;;;;;49.30;14.55;;;8.80;99.90;;;;;;5039910;28;20084;-64
2024/03/05 12:33:20;;;;;;;48.28;18.30;;;8.80;99.90;;;;;;5044236;28;20820;-63
2024/03/05 12:35:47;;;;;;;53.92;18.98;;;8.80;99.90;;;;;;5045099;28;20039;-64
2024/03/05 12:38:13;;;;;;;52.35;18.70;;;8.80;99.90;;;;;;5040657;28;20037;-64
2024/03/05 12:40:41;;;;;;;60.28;20.40;;;8.80;99.90;;;;;;5042235;28;20040;-64